Time;durP1;ratioP1;P1;durP2;ratioP2;P2;SDS_P1;SDS_P2;PMS_P1;PMS_P2;Temp;Humidity;BMP_temperature;BMP_pressure;BME280_temperature;BME280_humidity;BME280_pressure;Samples;Min_cycle;Max_cycle;Signal;HPM_P1;HPM_P2
2022/01/18 00:00:32;;;;;;;3.92;2.13;;;;;;;6.73;48.98;99715.81;3139527;28;20049;-62
2022/01/18 00:02:04;;;;;;;3.85;1.90;;;;;;;6.71;49.10;99704.66;3143595;28;20056;-63
2022/01/18 00:03:38;;;;;;;4.28;2.10;;;;;;;6.70;49.56;99717.66;3136828;28;20397;-62
2022/01/18 00:05:13;;;;;;;3.88;2.10;;;;;;;6.59;49.75;99710.22;3141514;28;20041;-62
2022/01/18 00:06:49;;;;;;;3.78;2.40;;;;;;;6.65;49.84;99729.88;3137422;28;20502;-62
2022/01/18 00:08:20;;;;;;;3.90;2.28;;;;;;;6.64;50.13;99730.78;3134568;28;20049;-62
2022/01/18 00:09:52;;;;;;;4.43;2.10;;;;;;;6.64;50.09;99721.28;3144033;28;20098;-62
2022/01/18 00:11:27;;;;;;;5.47;2.63;;;;;;;6.64;50.16;99726.47;3135121;28;20092;-62
2022/01/18 00:13:23;;;;;;;4.30;2.63;;;;;;;6.61;50.38;99719.63;3137465;28;20128;-62
2022/01/18 00:15:16;;;;;;;2.65;1.70;;;;;;;6.55;50.57;99729.31;3138842;28;20049;-62
2022/01/18 00:17:02;;;;;;;3.40;1.80;;;;;;;6.51;50.79;99736.34;3134411;28;20512;-62
2022/01/18 00:18:36;;;;;;;7.25;2.10;;;;;;;6.43;50.87;99730.53;3144072;28;20079;-62
2022/01/18 00:20:17;;;;;;;3.72;1.77;;;;;;;6.49;50.91;99742.44;3133575;28;20172;-62
2022/01/18 00:22:05;;;;;;;5.35;1.63;;;;;;;6.47;51.01;99739.03;3139481;28;20040;-62
2022/01/18 00:23:39;;;;;;;3.45;2.15;;;;;;;6.43;51.05;99738.28;3139422;28;20541;-62
2022/01/18 00:25:10;;;;;;;3.15;1.80;;;;;;;6.41;51.21;99747.81;3133483;28;20140;-62
2022/01/18 00:26:42;;;;;;;3.13;1.75;;;;;;;6.37;51.07;99736.72;3142484;28;20055;-62
2022/01/18 00:28:15;;;;;;;5.03;1.88;;;;;;;6.40;51.38;99747.88;3137344;28;20110;-62
2022/01/18 00:29:57;;;;;;;5.82;1.45;;;;;;;6.39;51.27;99749.63;3135610;28;20064;-63
2022/01/18 00:31:45;;;;;;;5.15;2.00;;;;;;;6.38;51.34;99753.09;3144094;28;20123;-62
2022/01/18 00:33:22;;;;;;;3.97;1.60;;;;;;;6.37;51.23;99761.75;3133387;28;20048;-62
2022/01/18 00:34:56;;;;;;;3.35;1.45;;;;;;;6.39;51.38;99759.97;3138498;28;20041;-62
2022/01/18 00:36:37;;;;;;;2.92;1.55;;;;;;;6.40;51.54;99766.84;3131827;28;20866;-62
2022/01/18 00:38:16;;;;;;;4.55;1.77;;;;;;;6.40;51.64;99774.59;3130973;28;20086;-62
2022/01/18 00:39:48;;;;;;;2.70;1.45;;;;;;;6.42;51.70;99778.00;3130934;28;20330;-62
2022/01/18 00:41:21;;;;;;;1.65;1.20;;;;;;;6.45;51.57;99782.22;3126502;28;20110;-62
2022/01/18 00:42:53;;;;;;;2.60;1.33;;;;;;;6.46;51.68;99789.09;3124966;28;20462;-61
2022/01/18 00:44:25;;;;;;;2.72;1.25;;;;;;;6.49;51.67;99792.44;3133309;28;20114;-63
2022/01/18 00:45:57;;;;;;;2.78;1.17;;;;;;;6.50;51.95;99788.94;3123685;28;20378;-62
2022/01/18 00:47:29;;;;;;;2.58;0.75;;;;;;;6.53;51.90;99798.38;3127906;28;20067;-63
2022/01/18 00:49:02;;;;;;;3.80;1.48;;;;;;;6.53;51.89;99791.44;3133773;28;20830;-63
2022/01/18 00:50:34;;;;;;;2.72;1.10;;;;;;;6.52;51.94;99792.34;3123091;28;20052;-62
2022/01/18 00:52:09;;;;;;;2.38;1.20;;;;;;;6.56;52.05;99796.53;3129241;28;20059;-62
2022/01/18 00:53:43;;;;;;;1.50;1.00;;;;;;;6.56;52.03;99809.47;3128510;28;20156;-63
2022/01/18 00:55:15;;;;;;;3.47;1.35;;;;;;;6.56;52.15;99804.28;3122934;28;20557;-62
2022/01/18 00:56:47;;;;;;;1.70;1.00;;;;;;;6.57;52.28;99800.84;3132934;28;20048;-62
2022/01/18 00:58:20;;;;;;;2.17;1.17;;;;;;;6.58;52.15;99787.00;3128929;28;20514;-63
2022/01/18 00:59:52;;;;;;;2.38;1.00;;;;;;;6.55;52.28;99778.47;3123939;28;20053;-63
2022/01/18 01:01:25;;;;;;;2.17;1.13;;;;;;;6.58;52.29;99775.81;3131934;28;20044;-63
2022/01/18 01:02:57;;;;;;;2.85;1.30;;;;;;;6.57;52.40;99774.97;3128887;28;20060;-63
2022/01/18 01:04:33;;;;;;;1.90;1.25;;;;;;;6.57;52.41;99785.31;3126946;28;20212;-63
2022/01/18 01:06:07;;;;;;;2.85;1.35;;;;;;;6.56;52.59;99782.75;3132572;28;20048;-62
2022/01/18 01:07:41;;;;;;;3.13;1.60;;;;;;;6.54;52.55;99781.97;3122689;28;20049;-62
2022/01/18 01:09:13;;;;;;;2.40;1.10;;;;;;;6.54;52.64;99779.38;3128571;28;20080;-62
2022/01/18 01:10:45;;;;;;;2.75;1.33;;;;;;;6.53;52.61;99777.66;3134981;28;20052;-63
2022/01/18 01:12:19;;;;;;;2.87;1.30;;;;;;;6.52;52.83;99786.34;3126061;28;20056;-63
2022/01/18 01:13:53;;;;;;;1.52;1.05;;;;;;;6.49;52.86;99781.25;3132403;28;20711;-63
2022/01/18 01:15:27;;;;;;;4.05;1.17;;;;;;;6.53;52.99;99788.84;3129261;28;20175;-63
2022/01/18 01:17:09;;;;;;;2.42;1.10;;;;;;;6.51;52.98;99787.25;3123344;28;20064;-62
2022/01/18 01:18:50;;;;;;;1.85;1.05;;;;;;;6.48;53.07;99775.22;3128351;28;20048;-62
2022/01/18 01:35:10;;;;;;;2.67;1.25;;;;;;;6.32;53.57;99758.44;3133059;28;20099;-62
2022/01/18 01:37:00;;;;;;;2.72;1.25;;;;;;;6.32;53.49;99761.03;3139402;28;20045;-62
2022/01/18 01:42:31;;;;;;;2.17;1.20;;;;;;;6.30;53.69;99786.94;3127470;28;20057;-62
2022/01/18 01:44:07;;;;;;;3.08;1.13;;;;;;;6.33;53.63;99802.38;3136488;28;20609;-61
2022/01/18 01:45:39;;;;;;;2.42;1.10;;;;;;;6.38;53.50;99818.59;3129749;28;20083;-62
2022/01/18 01:47:13;;;;;;;2.15;0.93;;;;;;;6.42;53.78;99840.06;3128724;28;20118;-61
2022/01/18 01:48:51;;;;;;;3.35;1.27;;;;;;;6.45;53.54;99836.53;3137665;28;20045;-63
2022/01/18 01:50:28;;;;;;;1.80;0.77;;;;;;;6.33;53.40;99823.06;3128336;28;20095;-63
2022/01/18 01:52:04;;;;;;;1.55;0.80;;;;;;;6.50;53.69;99848.44;3130904;28;20125;-63
2022/01/18 01:53:36;;;;;;;2.28;1.02;;;;;;;6.52;54.37;99854.44;3135961;28;20044;-63
2022/01/18 01:55:09;;;;;;;3.95;0.73;;;;;;;6.58;54.63;99871.53;3127128;28;20048;-63
2022/01/18 01:56:43;;;;;;;1.38;0.70;;;;;;;6.57;54.84;99875.88;3133467;28;20052;-63
2022/01/18 01:58:15;;;;;;;4.90;1.25;;;;;;;6.59;55.25;99875.81;3132069;28;20102;-63
2022/01/18 01:59:48;;;;;;;0.70;0.50;;;;;;;6.59;55.45;99875.81;3127173;28;20310;-63
2022/01/18 02:01:21;;;;;;;3.95;0.60;;;;;;;6.58;55.46;99890.50;3136291;28;20311;-63
2022/01/18 02:02:53;;;;;;;1.60;0.70;;;;;;;6.54;55.68;99895.81;3131091;28;20651;-63
2022/01/18 02:04:25;;;;;;;2.00;0.65;;;;;;;6.55;55.89;99898.34;3128523;28;20421;-63
2022/01/18 02:05:57;;;;;;;1.77;0.70;;;;;;;6.24;55.81;99846.59;3136280;28;20049;-62
2022/01/18 02:07:29;;;;;;;2.50;0.90;;;;;;;6.50;56.25;99913.13;3128442;28;20474;-63
2022/01/18 02:09:01;;;;;;;1.27;0.70;;;;;;;6.47;56.14;99910.63;3136437;28;20056;-62
2022/01/18 02:10:33;;;;;;;3.70;0.93;;;;;;;6.42;56.19;99909.91;3137607;28;20052;-61
2022/01/18 02:12:07;;;;;;;1.52;0.82;;;;;;;6.34;56.63;99912.69;3139103;28;20497;-61
2022/01/18 02:13:40;;;;;;;1.50;0.95;;;;;;;6.28;56.64;99902.50;3136552;28;20129;-62
2022/01/18 02:15:16;;;;;;;1.40;0.65;;;;;;;6.22;56.90;99912.19;3133607;28;20062;-62
2022/01/18 02:22:19;;;;;;;1.75;1.02;;;;;;;5.52;57.32;99850.09;3130662;28;20045;-62
2022/01/18 02:23:51;;;;;;;1.75;0.85;;;;;;;5.85;56.88;99938.88;3134391;28;20053;-62
2022/01/18 02:25:23;;;;;;;1.33;0.70;;;;;;;5.82;56.62;99944.97;3139265;28;20060;-62
2022/01/18 02:26:55;;;;;;;3.03;1.42;;;;;;;5.78;56.61;99945.94;3135273;28;20130;-62
2022/01/18 02:28:28;;;;;;;1.77;0.82;;;;;;;5.62;56.64;99929.06;3132306;28;20057;-62
2022/01/18 02:30:00;;;;;;;1.55;0.82;;;;;;;5.75;56.88;99968.41;3129648;28;20052;-62
2022/01/18 02:31:31;;;;;;;1.52;0.80;;;;;;;5.75;56.90;99973.59;3132565;28;20111;-62
2022/01/18 02:33:03;;;;;;;1.48;0.82;;;;;;;5.68;56.84;99981.47;3135995;28;20083;-62
2022/01/18 02:34:35;;;;;;;1.42;0.55;;;;;;;5.65;55.91;99978.13;3127984;28;20048;-61
2022/01/18 02:36:09;;;;;;;1.52;1.05;;;;;;;5.64;55.46;99992.75;3137358;28;20056;-61
2022/01/18 02:37:41;;;;;;;1.55;0.80;;;;;;;5.60;55.26;99990.28;3127948;28;20114;-61
2022/01/18 02:39:14;;;;;;;1.10;0.70;;;;;;;5.57;55.03;100001.53;3130019;28;20529;-62
2022/01/18 02:40:46;;;;;;;1.67;0.40;;;;;;;5.55;54.87;100013.63;3134886;28;20048;-62
2022/01/18 02:42:24;;;;;;;1.98;0.60;;;;;;;5.54;54.88;100016.25;3127309;28;20140;-62
2022/01/18 02:43:55;;;;;;;1.38;0.70;;;;;;;5.46;55.31;100009.50;3132296;28;20440;-62
2022/01/18 02:45:28;;;;;;;1.60;0.63;;;;;;;5.48;55.45;100006.88;3135235;28;20095;-62
2022/01/18 02:47:01;;;;;;;2.42;1.00;;;;;;;5.46;55.45;100008.66;3127284;28;20053;-62
2022/01/18 02:48:32;;;;;;;1.45;0.80;;;;;;;5.44;55.66;100013.84;3134089;28;20057;-62
2022/01/18 02:50:05;;;;;;;1.10;0.80;;;;;;;5.41;56.16;100020.78;3131098;28;20059;-62
2022/01/18 02:51:38;;;;;;;2.35;0.90;;;;;;;5.40;56.30;100027.69;3127767;28;20124;-64
2022/01/18 02:53:10;;;;;;;2.25;0.93;;;;;;;5.33;56.52;100025.28;3136481;28;20102;-63
2022/01/18 02:54:42;;;;;;;3.13;0.77;;;;;;;5.36;56.84;100030.41;3130361;28;20053;-62
2022/01/18 02:56:13;;;;;;;2.30;1.38;;;;;;;5.32;57.39;100023.56;3127026;28;20488;-62
2022/01/18 02:57:55;;;;;;;1.65;0.90;;;;;;;5.29;57.61;100036.53;3140171;28;20101;-64
2022/01/18 02:59:33;;;;;;;1.63;0.82;;;;;;;5.22;58.17;100049.56;3129230;28;20143;-62
2022/01/18 03:03:13;;;;;;;3.22;0.90;;;;;;;5.13;58.34;100054.06;3135337;28;20053;-64
2022/01/18 03:04:47;;;;;;;1.63;1.00;;;;;;;4.87;58.37;100044.22;3130530;28;20165;-64
2022/01/18 03:06:18;;;;;;;3.13;0.73;;;;;;;5.05;58.39;100087.75;3141068;28;20052;-63
2022/01/18 03:07:52;;;;;;;2.15;1.10;;;;;;;4.99;58.15;100091.28;3141055;28;20060;-63
2022/01/18 03:09:24;;;;;;;1.38;0.57;;;;;;;4.94;57.71;100092.25;3139146;28;20053;-63
2022/01/18 03:10:56;;;;;;;1.08;0.70;;;;;;;4.91;56.84;100103.50;3139032;28;20048;-64
2022/01/18 03:12:30;;;;;;;1.10;0.50;;;;;;;4.85;56.17;100113.94;3140914;28;20483;-63
2022/01/18 03:14:02;;;;;;;1.20;0.55;;;;;;;4.82;55.15;100126.00;3136812;28;20441;-64
2022/01/18 03:15:35;;;;;;;1.67;0.80;;;;;;;4.78;53.98;100126.06;3136357;28;20060;-64
2022/01/18 03:17:08;;;;;;;0.90;0.50;;;;;;;4.72;53.33;100122.72;3130121;28;20063;-64
2022/01/18 03:18:40;;;;;;;1.00;0.40;;;;;;;4.70;53.01;100119.31;3137441;28;20053;-63
2022/01/18 03:20:15;;;;;;;1.30;0.68;;;;;;;4.70;52.53;100125.34;3133298;28;20049;-63
2022/01/18 03:21:49;;;;;;;2.80;1.73;;;;;;;4.66;51.11;100140.91;3130005;28;20509;-63
2022/01/18 03:23:24;;;;;;;3.20;1.60;;;;;;;4.61;50.37;100133.22;3139503;28;20048;-62
2022/01/18 03:25:01;;;;;;;5.68;0.80;;;;;;;4.55;49.13;100138.47;3131430;28;20382;-63
2022/01/18 03:28:03;;;;;;;1.70;0.90;;;;;;;4.55;48.21;100141.03;3132409;28;20704;-63
2022/01/18 03:28:26;;;;;;;3.67;1.45;;;;;;;4.24;47.52;100107.13;3137098;28;20109;-63
2022/01/18 03:29:57;;;;;;;7.30;1.25;;;;;;;4.47;47.29;100150.66;3128956;28;20045;-63
2022/01/18 03:31:29;;;;;;;1.63;0.65;;;;;;;4.46;46.10;100156.66;3135069;28;20052;-63
2022/01/18 03:33:02;;;;;;;1.85;0.68;;;;;;;4.43;45.72;100156.69;3135142;28;20048;-61
2022/01/18 03:34:34;;;;;;;0.93;0.70;;;;;;;4.40;44.95;100151.59;3130376;28;20049;-61
2022/01/18 03:36:06;;;;;;;2.42;0.60;;;;;;;4.36;44.82;100150.78;3137022;28;20048;-63
2022/01/18 03:37:39;;;;;;;1.95;0.52;;;;;;;4.31;44.37;100153.41;3131525;28;20754;-62
2022/01/18 03:39:12;;;;;;;;;;;;;;;4.14;44.64;100169.97;3130401;28;20048;-64
2022/01/18 03:40:45;;;;;;;3.40;0.43;;;;;;;4.17;44.49;100175.09;3139145;28;19998;-64
2022/01/18 03:44:06;;;;;;;2.55;0.70;;;;;;;4.14;43.91;100185.44;3121153;28;20109;-64
2022/01/18 03:45:41;;;;;;;1.10;0.30;;;;;;;4.13;43.39;100202.66;3138927;28;20733;-64
2022/01/18 03:47:14;;;;;;;1.33;0.50;;;;;;;4.09;43.27;100194.09;3140957;28;20075;-65
2022/01/18 03:48:51;;;;;;;2.90;0.50;;;;;;;4.07;43.22;100195.00;3136313;28;20117;-63
2022/01/18 03:50:23;;;;;;;4.72;0.50;;;;;;;4.04;43.05;100200.19;3133704;28;20134;-64
2022/01/18 03:51:55;;;;;;;2.20;0.70;;;;;;;4.03;42.89;100216.53;3129475;28;20437;-65
2022/01/18 03:53:28;;;;;;;1.92;0.50;;;;;;;4.02;42.49;100222.53;3138588;28;20067;-64
2022/01/18 03:55:01;;;;;;;1.35;0.40;;;;;;;4.00;42.48;100227.72;3130385;28;20099;-66
2022/01/18 03:56:33;;;;;;;;;;;;;;;3.78;42.80;100218.50;3131572;28;20488;-64
2022/01/18 03:58:05;;;;;;;2.15;0.50;;;;;;;3.83;42.58;100221.91;3138336;28;19932;-64
2022/01/18 03:59:37;;;;;;;1.52;0.50;;;;;;;3.85;42.48;100226.16;3132759;28;20044;-64
2022/01/18 04:01:09;;;;;;;1.80;0.60;;;;;;;3.83;42.21;100221.91;3133716;28;20147;-65
2022/01/18 04:02:41;;;;;;;1.25;0.57;;;;;;;3.85;41.99;100230.47;3135884;28;20051;-64
2022/01/18 04:04:16;;;;;;;1.00;0.60;;;;;;;3.87;41.88;100250.22;3128571;28;20053;-64
2022/01/18 04:05:48;;;;;;;1.98;0.65;;;;;;;3.84;42.05;100255.34;3135221;28;20151;-64
2022/01/18 04:07:20;;;;;;;1.70;0.77;;;;;;;3.85;41.68;100261.41;3133532;28;20509;-63
2022/01/18 04:08:52;;;;;;;2.38;0.90;;;;;;;3.84;41.96;100265.66;3134322;28;20127;-62
2022/01/18 04:10:26;;;;;;;1.75;0.50;;;;;;;3.85;41.99;100264.81;3134902;28;20053;-63
2022/01/18 04:11:58;;;;;;;1.67;0.55;;;;;;;3.82;41.95;100257.13;3132573;28;20049;-63
2022/01/18 04:13:30;;;;;;;1.23;0.50;;;;;;;3.79;42.01;100262.31;3128956;28;20052;-63
2022/01/18 04:15:02;;;;;;;2.55;0.55;;;;;;;3.73;42.02;100267.53;3139858;28;20176;-63
2022/01/18 04:16:43;;;;;;;2.10;0.40;;;;;;;3.72;42.14;100272.66;3129069;28;20122;-63
2022/01/18 04:18:26;;;;;;;2.38;0.40;;;;;;;3.63;42.41;100266.72;3132483;28;20139;-63
2022/01/18 04:27:18;;;;;;;2.00;1.10;;;;;;;3.50;42.57;100323.53;3136729;28;20048;-63
2022/01/18 04:28:50;;;;;;;7.25;0.80;;;;;;;3.50;42.40;100323.53;3133028;28;20745;-63
2022/01/18 04:30:22;;;;;;;3.67;1.08;;;;;;;3.49;42.52;100330.41;3129354;28;20566;-63
2022/01/18 04:31:54;;;;;;;1.90;0.97;;;;;;;3.48;42.57;100323.53;3134945;28;20053;-63
2022/01/18 04:33:26;;;;;;;2.83;0.65;;;;;;;3.48;42.51;100327.81;3132446;28;20377;-63
2022/01/18 04:34:58;;;;;;;3.05;0.93;;;;;;;3.46;42.46;100322.69;3130925;28;20651;-62
2022/01/18 04:36:30;;;;;;;6.75;0.85;;;;;;;3.42;42.44;100329.56;3138614;28;20056;-63
2022/01/18 04:38:05;;;;;;;2.45;0.70;;;;;;;3.45;42.29;100338.16;3130521;28;20053;-63
2022/01/18 04:39:39;;;;;;;2.13;0.70;;;;;;;3.39;42.55;100342.47;3136967;28;20506;-62
2022/01/18 04:41:16;;;;;;;7.25;0.73;;;;;;;3.40;42.52;100333.00;3142374;28;20102;-62
2022/01/18 04:48:29;;;;;;;3.38;0.70;;;;;;;3.16;42.40;100331.47;3138053;28;20044;-63
2022/01/18 04:50:01;;;;;;;2.90;0.65;;;;;;;3.18;42.69;100352.91;3140964;28;20048;-63
2022/01/18 04:51:33;;;;;;;3.40;1.00;;;;;;;3.20;42.59;100358.91;3133145;28;20079;-63
2022/01/18 04:53:05;;;;;;;2.27;0.70;;;;;;;3.18;42.62;100360.63;3140445;28;20114;-62
2022/01/18 04:54:39;;;;;;;3.05;0.60;;;;;;;3.17;42.71;100353.78;3138813;28;20800;-63
2022/01/18 04:56:16;;;;;;;5.68;0.80;;;;;;;3.16;42.41;100364.94;3138900;28;20506;-63
2022/01/18 04:57:53;;;;;;;2.03;0.75;;;;;;;3.09;42.62;100369.25;3143131;28;20157;-63
2022/01/18 04:59:24;;;;;;;2.20;0.70;;;;;;;3.09;42.52;100376.13;3133926;28;20835;-63
2022/01/18 05:01:00;;;;;;;5.25;0.70;;;;;;;3.10;42.31;100390.69;3137028;28;20425;-63
2022/01/18 05:02:32;;;;;;;3.22;0.70;;;;;;;3.08;42.44;100389.88;3143285;28;20048;-63
2022/01/18 05:04:04;;;;;;;3.30;1.20;;;;;;;3.06;42.33;100392.44;3133168;28;20529;-63
2022/01/18 05:05:37;;;;;;;4.00;1.52;;;;;;;3.06;42.46;100394.16;3137093;28;20048;-63
2022/01/18 05:07:11;;;;;;;7.37;2.87;;;;;;;3.05;42.56;100401.03;3141223;28;20533;-63
2022/01/18 05:08:43;;;;;;;6.35;1.48;;;;;;;3.05;42.39;100408.75;3133008;28;20396;-63
2022/01/18 05:10:19;;;;;;;4.78;1.00;;;;;;;3.04;42.38;100404.44;3140859;28;20106;-63
2022/01/18 05:12:00;;;;;;;3.20;1.23;;;;;;;3.03;42.56;100417.34;3137418;28;20736;-63
2022/01/18 05:15:41;;;;;;;6.85;1.17;;;;;;;2.93;42.76;100426.81;3123465;28;20428;-62
2022/01/18 05:17:32;;;;;;;4.85;1.23;;;;;;;2.89;42.47;100428.53;3132949;28;20102;-62
2022/01/18 05:19:10;;;;;;;3.40;1.00;;;;;;;2.70;42.65;100394.31;3141736;28;20589;-62
2022/01/18 05:21:06;;;;;;;1.98;0.68;;;;;;;2.87;42.59;100427.69;3134461;28;20477;-63
2022/01/18 05:24:28;;;;;;;3.22;1.02;;;;;;;2.85;42.58;100431.13;3139638;28;20120;-63
2022/01/18 05:25:59;;;;;;;4.88;1.15;;;;;;;2.82;42.64;100429.41;3132775;28;20489;-63
2022/01/18 05:27:33;;;;;;;2.80;1.27;;;;;;;2.85;42.70;100429.41;3141603;28;20544;-62
2022/01/18 05:29:05;;;;;;;3.15;0.98;;;;;;;2.81;42.80;100430.28;3143094;28;20513;-62
2022/01/18 05:30:36;;;;;;;6.60;1.30;;;;;;;2.83;42.76;100438.84;3142803;28;20063;-62
2022/01/18 05:32:09;;;;;;;9.02;2.08;;;;;;;2.81;42.73;100434.56;3141073;28;20045;-62
2022/01/18 05:33:42;;;;;;;4.50;1.92;;;;;;;2.80;42.71;100441.41;3135623;28;20044;-63
2022/01/18 05:35:14;;;;;;;7.73;2.57;;;;;;;2.80;42.75;100440.56;3136036;28;20579;-62
2022/01/18 05:36:46;;;;;;;5.65;2.13;;;;;;;2.77;42.91;100446.56;3141516;28;20818;-63
2022/01/18 05:38:18;;;;;;;7.65;2.20;;;;;;;2.79;42.64;100444.00;3134653;28;20041;-62
2022/01/18 05:39:50;;;;;;;3.42;1.55;;;;;;;2.79;42.56;100455.16;3141182;28;20082;-63
2022/01/18 05:41:22;;;;;;;5.13;2.22;;;;;;;2.79;42.47;100449.16;3144140;28;20469;-63
2022/01/18 05:42:55;;;;;;;5.00;1.40;;;;;;;2.80;42.51;100459.44;3144201;28;20105;-63
2022/01/18 05:44:27;;;;;;;4.80;1.50;;;;;;;2.76;42.28;100457.72;3138028;28;20091;-63
2022/01/18 05:45:59;;;;;;;6.97;1.33;;;;;;;2.77;42.26;100462.00;3139153;28;20060;-64
2022/01/18 05:47:31;;;;;;;8.10;1.30;;;;;;;2.80;42.13;100467.16;3132301;28;20122;-64
2022/01/18 05:49:03;;;;;;;3.75;1.27;;;;;;;2.79;42.10;100467.16;3141332;28;20132;-64
2022/01/18 05:50:35;;;;;;;7.00;1.08;;;;;;;2.78;42.03;100463.75;3137087;28;20633;-63
2022/01/18 05:52:07;;;;;;;4.35;1.10;;;;;;;2.81;41.99;100478.28;3134353;28;20044;-63
2022/01/18 05:53:41;;;;;;;3.55;1.10;;;;;;;2.78;41.57;100476.59;3141138;28;20052;-64
2022/01/18 05:55:12;;;;;;;;;;;;;;;2.62;41.94;100474.91;3135111;28;20524;-63
2022/01/18 05:56:44;;;;;;;6.28;1.25;;;;;;;2.68;41.91;100475.75;3134215;28;19920;-63
2022/01/18 05:58:18;;;;;;;6.88;1.75;;;;;;;2.77;41.74;100486.88;3143701;28;20122;-63
2022/01/18 05:59:50;;;;;;;4.53;1.30;;;;;;;2.80;41.53;100480.00;3132435;28;20049;-63
2022/01/18 06:01:27;;;;;;;8.10;1.48;;;;;;;2.83;41.43;100471.44;3136924;28;20390;-64
2022/01/18 06:03:11;;;;;;;4.13;1.20;;;;;;;2.83;41.12;100474.00;3140174;28;20052;-64
2022/01/18 06:06:53;;;;;;;2.65;0.70;;;;;;;2.90;40.88;100483.44;3141701;28;20040;-63
2022/01/18 06:08:25;;;;;;;2.58;1.20;;;;;;;2.92;40.79;100486.84;3138478;28;20469;-63
2022/01/18 06:09:57;;;;;;;9.25;1.20;;;;;;;2.94;40.92;100474.84;3137574;28;20052;-63
2022/01/18 06:11:29;;;;;;;5.63;1.02;;;;;;;3.01;40.64;100485.94;3140322;28;20631;-63
2022/01/18 06:13:02;;;;;;;4.63;1.15;;;;;;;3.06;40.69;100491.94;3132532;28;20225;-63
2022/01/18 06:14:35;;;;;;;3.00;1.20;;;;;;;3.07;40.67;100493.66;3137215;28;20088;-63
2022/01/18 06:16:07;;;;;;;4.18;1.48;;;;;;;3.10;40.65;100501.34;3138845;28;20053;-63
2022/01/18 06:17:39;;;;;;;3.60;1.60;;;;;;;3.13;40.75;100506.50;3136521;28;20053;-63
2022/01/18 06:19:11;;;;;;;3.58;1.65;;;;;;;3.17;40.74;100513.34;3142493;28;20049;-62
2022/01/18 06:20:43;;;;;;;4.68;1.98;;;;;;;3.18;40.48;100481.59;3139438;28;20053;-63
2022/01/18 06:22:15;;;;;;;5.13;1.40;;;;;;;3.21;40.66;100491.88;3141786;28;20076;-63
2022/01/18 06:23:47;;;;;;;4.82;1.27;;;;;;;3.24;40.72;100488.44;3141904;28;20053;-63
2022/01/18 06:25:20;;;;;;;4.80;1.67;;;;;;;3.28;40.79;100479.84;3136604;28;20053;-63
2022/01/18 06:26:52;;;;;;;4.80;1.35;;;;;;;3.27;40.99;100473.84;3134531;28;20049;-63
2022/01/18 06:28:24;;;;;;;4.70;1.50;;;;;;;3.34;41.04;100472.97;3142286;28;20552;-63
2022/01/18 06:29:57;;;;;;;3.58;1.40;;;;;;;3.45;41.03;100477.19;3132540;28;20065;-63
2022/01/18 06:31:29;;;;;;;3.78;1.33;;;;;;;3.62;41.33;100485.69;3137341;28;20125;-63
2022/01/18 06:33:01;;;;;;;5.22;1.48;;;;;;;3.86;41.18;100485.50;3145749;28;20060;-63
2022/01/18 06:34:33;;;;;;;4.82;2.47;;;;;;;4.13;41.09;100485.34;3144539;28;20052;-63
2022/01/18 06:36:06;;;;;;;3.92;1.88;;;;;;;4.40;40.93;100484.25;3141440;28;20065;-62
2022/01/18 06:37:38;;;;;;;5.65;2.40;;;;;;;4.61;40.73;100478.03;3143015;28;20101;-62
2022/01/18 06:39:11;;;;;;;3.90;2.03;;;;;;;4.85;40.46;100487.22;3146149;28;20101;-61
2022/01/18 06:40:44;;;;;;;4.07;1.90;;;;;;;5.09;40.16;100484.41;3143270;28;21522;-61
2022/01/18 06:42:16;;;;;;;3.45;1.50;;;;;;;5.35;40.06;100485.78;3144455;28;20408;-63
2022/01/18 06:43:48;;;;;;;11.90;2.50;;;;;;;5.56;39.64;100485.53;3144481;28;20044;-62
2022/01/18 06:45:21;;;;;;;3.25;1.58;;;;;;;5.68;39.34;100493.09;3145272;28;20510;-62
2022/01/18 06:46:54;;;;;;;8.20;2.30;;;;;;;5.84;39.25;100491.13;3135881;28;20049;-62
2022/01/18 06:48:26;;;;;;;4.32;1.55;;;;;;;5.97;39.06;100486.66;3137447;28;20118;-62
2022/01/18 06:49:58;;;;;;;3.78;1.60;;;;;;;6.07;38.84;100500.31;3143334;28;20048;-62
2022/01/18 06:51:31;;;;;;;7.65;2.50;;;;;;;5.89;38.84;100452.31;3134387;28;20045;-62
2022/01/18 06:53:03;;;;;;;7.82;2.05;;;;;;;6.33;38.51;100494.72;3139687;28;20044;-62
2022/01/18 06:54:35;;;;;;;6.37;2.03;;;;;;;6.44;38.49;100502.31;3145400;28;20113;-62
2022/01/18 06:56:07;;;;;;;4.10;1.55;;;;;;;6.51;38.57;100517.72;3141804;28;20098;-62
2022/01/18 06:57:39;;;;;;;5.13;1.95;;;;;;;6.65;38.18;100514.00;3138916;28;20052;-62
2022/01/18 06:59:11;;;;;;;4.88;1.60;;;;;;;6.74;38.07;100527.63;3141300;28;20406;-62
2022/01/18 07:00:44;;;;;;;9.10;2.28;;;;;;;6.82;37.89;100518.00;3134895;28;20468;-62
2022/01/18 07:02:16;;;;;;;3.85;1.50;;;;;;;6.90;37.59;100515.28;3143147;28;20464;-62
2022/01/18 07:03:49;;;;;;;3.83;1.83;;;;;;;7.04;37.37;100515.03;3139455;28;20111;-63
2022/01/18 07:05:21;;;;;;;6.53;1.48;;;;;;;7.10;37.21;100525.28;3143651;28;20482;-62
2022/01/18 07:06:53;;;;;;;7.30;2.47;;;;;;;7.14;36.82;100518.28;3145580;28;20036;-62
2022/01/18 07:08:24;;;;;;;5.15;2.38;;;;;;;7.29;36.79;100523.16;3143214;28;20049;-62
2022/01/18 07:09:56;;;;;;;5.53;2.40;;;;;;;7.35;36.57;100519.59;3143984;28;20442;-62
2022/01/18 07:11:28;;;;;;;5.38;1.83;;;;;;;7.46;36.22;100520.25;3144631;28;20053;-63
2022/01/18 07:13:01;;;;;;;4.03;2.10;;;;;;;7.56;36.25;100518.31;3134320;28;20049;-63
2022/01/18 07:14:32;;;;;;;6.40;1.88;;;;;;;7.62;35.96;100510.38;3135685;28;20067;-62
2022/01/18 07:16:06;;;;;;;8.75;1.73;;;;;;;7.68;36.01;100523.22;3140749;28;20419;-63
2022/01/18 07:17:38;;;;;;;;;;;;;;;7.54;36.27;100523.50;3135049;28;20053;-62
2022/01/18 07:19:10;;;;;;;5.05;2.03;;;;;;;7.66;35.98;100528.44;3140273;28;20402;-63
2022/01/18 07:20:42;;;;;;;6.85;2.33;;;;;;;7.80;35.89;100529.88;3140693;28;20057;-63
2022/01/18 07:22:14;;;;;;;6.22;1.80;;;;;;;7.86;35.69;100538.38;3134759;28;20465;-62
2022/01/18 07:23:45;;;;;;;4.70;1.77;;;;;;;7.88;35.59;100544.38;3141245;28;20045;-62
2022/01/18 07:25:18;;;;;;;5.03;1.92;;;;;;;7.93;35.35;100544.28;3138705;28;20045;-62
2022/01/18 07:26:50;;;;;;;5.32;2.30;;;;;;;7.97;35.36;100549.34;3135820;28;20048;-62
2022/01/18 07:28:22;;;;;;;4.85;1.83;;;;;;;8.02;35.42;100532.84;3143213;28;20527;-63
2022/01/18 07:29:54;;;;;;;10.30;3.08;;;;;;;7.79;35.35;100492.72;3145500;28;20053;-62
2022/01/18 07:31:27;;;;;;;6.15;3.00;;;;;;;8.14;35.19;100556.75;3145087;28;20151;-65
2022/01/18 07:32:59;;;;;;;4.65;1.77;;;;;;;8.17;35.05;100561.03;3140157;28;20060;-62
2022/01/18 07:34:33;;;;;;;8.52;2.58;;;;;;;8.17;34.77;100585.22;3136675;28;20118;-62
2022/01/18 07:36:06;;;;;;;6.53;2.38;;;;;;;8.15;34.76;100580.97;3142722;28;20414;-62
2022/01/18 07:37:38;;;;;;;10.05;2.30;;;;;;;8.13;35.03;100573.22;3144448;28;20105;-61
2022/01/18 07:39:09;;;;;;;6.60;1.83;;;;;;;8.09;34.80;100581.09;3145782;28;20117;-61
2022/01/18 07:40:43;;;;;;;9.32;2.35;;;;;;;8.08;35.04;100589.78;3140822;28;20110;-62
2022/01/18 07:42:14;;;;;;;8.70;2.78;;;;;;;8.07;35.13;100585.47;3143720;28;20169;-61
2022/01/18 07:43:46;;;;;;;4.15;2.00;;;;;;;8.08;34.76;100580.25;3142171;28;20204;-61
2022/01/18 07:45:18;;;;;;;5.78;2.42;;;;;;;8.10;34.66;100581.06;3141444;28;20048;-61
2022/01/18 07:46:52;;;;;;;8.82;2.45;;;;;;;8.13;34.91;100585.31;3138562;28;20049;-61
2022/01/18 07:48:24;;;;;;;7.35;2.42;;;;;;;8.14;34.73;100587.91;3133600;28;20057;-61
2022/01/18 07:49:56;;;;;;;5.20;2.63;;;;;;;8.19;34.57;100592.97;3144106;28;20102;-62
2022/01/18 07:51:28;;;;;;;5.72;2.30;;;;;;;8.21;34.63;100598.97;3134916;28;20134;-62
2022/01/18 07:52:59;;;;;;;7.80;2.20;;;;;;;8.19;34.56;100598.16;3137090;28;20079;-63
2022/01/18 07:54:31;;;;;;;11.15;2.45;;;;;;;8.20;34.58;100594.69;3142829;28;20051;-63
2022/01/18 07:56:04;;;;;;;7.70;2.58;;;;;;;8.24;34.56;100605.84;3135088;28;20049;-63
2022/01/18 07:57:37;;;;;;;6.05;2.22;;;;;;;8.20;34.42;100600.72;3142556;28;20056;-60
2022/01/18 07:59:09;;;;;;;4.53;1.92;;;;;;;8.13;34.32;100603.47;3142501;28;20150;-59
2022/01/18 08:00:42;;;;;;;7.00;2.63;;;;;;;8.11;34.42;100597.50;3139121;28;20056;-61
2022/01/18 08:02:15;;;;;;;6.18;1.92;;;;;;;8.14;34.42;100603.47;3138461;28;20131;-61
2022/01/18 08:03:47;;;;;;;9.15;2.20;;;;;;;8.17;34.49;100597.34;3137814;28;20079;-62
2022/01/18 08:05:19;;;;;;;4.30;1.70;;;;;;;8.19;34.48;100606.81;3137203;28;20049;-60
2022/01/18 08:06:51;;;;;;;4.93;2.05;;;;;;;8.21;34.42;100598.97;3137004;28;20066;-60
2022/01/18 08:08:23;;;;;;;5.93;2.28;;;;;;;8.19;34.39;100612.00;3139255;28;20587;-59
2022/01/18 08:09:55;;;;;;;4.32;2.08;;;;;;;8.19;34.11;100614.59;3136937;28;20143;-60